createdAt,value
2023-03-26T00:00:02.127Z,14
2023-03-26T00:15:01.863Z,14.13
2023-03-26T00:30:01.562Z,14.13
2023-03-26T00:45:02.240Z,13.87
2023-03-26T01:00:01.888Z,13.98
2023-03-26T01:15:01.580Z,14.19
2023-03-26T01:30:02.306Z,14.2
2023-03-26T01:45:01.958Z,14.27
2023-03-26T02:00:01.618Z,13.72
2023-03-26T02:15:01.309Z,13.46
2023-03-26T02:30:01.978Z,13.35
2023-03-26T02:45:01.720Z,13.58
2023-03-26T03:00:01.468Z,13.47
2023-03-26T03:15:02.206Z,13.75
2023-03-26T03:30:01.907Z,14.12
2023-03-26T03:45:01.611Z,14.46
2023-03-26T04:00:01.626Z,14.19
2023-03-26T04:15:02.269Z,13.23
2023-03-26T04:30:01.872Z,13.39
2023-03-26T04:45:01.505Z,13.63
2023-03-26T05:00:02.171Z,13.59
2023-03-26T05:15:01.801Z,13.75
2023-03-26T05:30:01.485Z,14.35
2023-03-26T05:45:02.154Z,14.96
2023-03-26T06:00:01.726Z,15.98
2023-03-26T06:15:02.356Z,15.98
2023-03-26T06:30:02.043Z,16.42
2023-03-26T06:45:01.700Z,16.32
2023-03-26T07:00:02.314Z,16.85
2023-03-26T07:15:01.977Z,16.75
2023-03-26T07:30:01.573Z,16.08
2023-03-26T07:45:02.192Z,16.66
2023-03-26T08:00:01.833Z,17.61
2023-03-26T08:15:01.487Z,19
2023-03-26T08:30:02.134Z,18.73
2023-03-26T08:45:01.821Z,20.01
2023-03-26T09:00:02.805Z,23.58
2023-03-26T09:15:01.768Z,25.47
2023-03-26T09:30:01.416Z,23.92
2023-03-26T09:45:02.081Z,22.82
2023-03-26T10:00:01.700Z,21.03
2023-03-26T10:15:01.342Z,20.78
2023-03-26T10:30:01.998Z,20.77
2023-03-26T10:45:01.596Z,20.41
2023-03-26T11:00:01.193Z,19.58
2023-03-26T11:15:01.878Z,19.76
2023-03-26T11:30:01.524Z,20.38
2023-03-26T11:45:02.141Z,21.65
2023-03-26T12:00:02.167Z,22.08
2023-03-26T12:15:01.798Z,21.28
2023-03-26T12:30:02.461Z,19.47
2023-03-26T12:45:02.438Z,18.84
2023-03-26T13:00:02.147Z,19.31
2023-03-26T13:15:01.922Z,19.26
2023-03-26T13:30:01.571Z,18.14
2023-03-26T13:45:04.675Z,17.15
2023-03-26T14:00:01.543Z,17.34
2023-03-26T14:15:02.212Z,17.22
2023-03-26T14:30:01.892Z,17.01
2023-03-26T14:45:01.545Z,17.27
2023-03-26T15:00:02.267Z,17.05
2023-03-26T15:15:01.897Z,16.4
2023-03-26T15:30:01.595Z,15.97
2023-03-26T15:45:02.191Z,15.85
2023-03-26T16:00:01.874Z,15.32
2023-03-26T16:15:01.521Z,14.93
2023-03-26T16:30:02.250Z,14.49
2023-03-26T16:45:01.910Z,14.01
2023-03-26T17:00:06.739Z,13.76
2023-03-26T17:15:02.158Z,13.46
2023-03-26T17:30:01.804Z,13.01
2023-03-26T17:45:01.454Z,11.93
2023-03-26T18:00:02.133Z,11.14
2023-03-26T18:15:01.794Z,10.45
2023-03-26T18:30:02.908Z,9.91
2023-03-26T18:45:04.681Z,9.46
2023-03-26T19:00:01.870Z,9.09
2023-03-26T19:15:01.521Z,8.82
2023-03-26T19:30:01.217Z,8.64
2023-03-26T19:45:01.925Z,8.66
2023-03-26T20:00:01.940Z,8.71
2023-03-26T20:15:01.785Z,8.71
2023-03-26T20:30:01.587Z,8.77
2023-03-26T20:45:02.249Z,8.82
2023-03-26T21:00:01.910Z,8.65
2023-03-26T21:15:03.201Z,8.38
2023-03-26T21:30:01.856Z,8.11
2023-03-26T21:45:01.557Z,7.93
2023-03-26T22:00:02.199Z,7.84
2023-03-26T22:15:01.902Z,7.67
2023-03-26T22:30:01.627Z,7.64
2023-03-26T22:45:02.276Z,7.57
2023-03-26T23:00:01.986Z,7.51
2023-03-26T23:15:01.886Z,7.46
2023-03-26T23:30:01.620Z,7.45
2023-03-26T23:45:02.300Z,7.51
